createdAt,value
2022-12-07T00:02:31.565Z,5.44
2022-12-07T00:05:56.721Z,5.45
2022-12-07T00:09:21.992Z,5.42
2022-12-07T00:12:47.284Z,5.37
2022-12-07T00:16:12.579Z,5.33
2022-12-07T00:19:37.817Z,5.36
2022-12-07T00:23:03.107Z,5.39
2022-12-07T00:26:28.391Z,5.43
2022-12-07T00:29:53.757Z,5.5
2022-12-07T00:33:18.996Z,5.57
2022-12-07T00:36:44.336Z,5.65
2022-12-07T00:40:09.606Z,5.68
2022-12-07T00:43:34.899Z,5.7
2022-12-07T00:47:00.224Z,5.72
2022-12-07T00:50:25.472Z,5.73
2022-12-07T00:53:50.760Z,5.78
2022-12-07T00:57:16.097Z,5.82
2022-12-07T01:00:41.458Z,5.86
2022-12-07T01:04:06.787Z,5.89
2022-12-07T01:07:32.038Z,5.9
2022-12-07T01:10:57.294Z,5.88
2022-12-07T01:14:22.566Z,5.83
2022-12-07T01:17:47.859Z,5.76
2022-12-07T01:21:13.186Z,5.72
2022-12-07T01:24:38.423Z,5.69
2022-12-07T01:28:03.703Z,5.64
2022-12-07T01:31:28.959Z,5.56
2022-12-07T01:34:54.225Z,5.45
2022-12-07T01:38:19.517Z,5.38
2022-12-07T01:41:44.786Z,5.29
2022-12-07T01:45:10.014Z,5.18
2022-12-07T01:48:35.273Z,5.12
2022-12-07T01:52:00.535Z,5.1
2022-12-07T01:55:25.820Z,5.12
2022-12-07T01:58:51.053Z,5.12
2022-12-07T02:02:16.334Z,5.06
2022-12-07T02:05:41.556Z,5
2022-12-07T02:09:06.807Z,4.98
2022-12-07T02:12:32.082Z,4.98
2022-12-07T02:15:57.318Z,4.98
2022-12-07T02:19:22.505Z,4.89
2022-12-07T02:22:47.763Z,4.85
2022-12-07T02:26:13.048Z,4.83
2022-12-07T02:29:38.295Z,4.86
2022-12-07T02:33:03.524Z,4.84
2022-12-07T02:36:28.771Z,4.8
2022-12-07T02:39:54.024Z,4.76
2022-12-07T02:43:19.276Z,4.67
2022-12-07T02:46:44.635Z,4.59
2022-12-07T02:50:09.770Z,4.56
2022-12-07T02:53:34.992Z,4.61
2022-12-07T02:57:00.221Z,4.66
2022-12-07T03:00:25.509Z,4.7
2022-12-07T03:03:50.816Z,4.73
2022-12-07T03:07:16.032Z,4.71
2022-12-07T03:10:41.283Z,4.68
2022-12-07T03:14:06.512Z,4.66
2022-12-07T03:17:31.767Z,4.7
2022-12-07T03:20:57.050Z,4.76
2022-12-07T03:24:22.272Z,4.81
2022-12-07T03:27:47.567Z,4.79
2022-12-07T03:31:12.915Z,4.76
2022-12-07T03:34:38.136Z,4.74
2022-12-07T03:38:03.406Z,4.73
2022-12-07T03:41:28.634Z,4.69
2022-12-07T03:44:53.919Z,4.66
2022-12-07T03:48:19.184Z,4.66
2022-12-07T03:51:44.415Z,4.68
2022-12-07T03:55:09.704Z,4.7
2022-12-07T03:58:34.909Z,4.73
2022-12-07T04:02:00.224Z,4.77
2022-12-07T04:05:25.511Z,4.79
2022-12-07T04:08:50.694Z,4.84
2022-12-07T04:12:15.999Z,4.82
2022-12-07T04:15:41.230Z,4.8
2022-12-07T04:19:06.501Z,4.77
2022-12-07T04:22:31.763Z,4.71
2022-12-07T04:25:57.002Z,4.69
2022-12-07T04:29:22.281Z,4.73
2022-12-07T04:32:47.527Z,4.72
2022-12-07T04:36:12.759Z,4.7
2022-12-07T04:39:38.002Z,4.72
2022-12-07T04:43:03.247Z,4.75
2022-12-07T04:46:28.591Z,4.78
2022-12-07T04:49:55.451Z,4.78
2022-12-07T04:53:20.742Z,4.74
2022-12-07T04:56:46.273Z,4.74
2022-12-07T05:00:11.495Z,4.76
2022-12-07T05:03:37.291Z,4.76
2022-12-07T05:07:02.548Z,4.73
2022-12-07T05:10:27.795Z,4.65
2022-12-07T05:13:53.039Z,4.62
2022-12-07T05:17:18.322Z,4.62
2022-12-07T05:20:43.597Z,4.65
2022-12-07T05:24:08.861Z,4.7
2022-12-07T05:27:34.117Z,4.7
2022-12-07T05:31:00.007Z,4.65
2022-12-07T05:34:24.925Z,4.69
2022-12-07T05:37:50.285Z,4.7
2022-12-07T05:41:15.591Z,4.74
2022-12-07T05:44:40.998Z,4.78
2022-12-07T05:48:06.396Z,4.83
2022-12-07T05:51:31.927Z,4.88
2022-12-07T05:54:57.350Z,4.88
2022-12-07T05:58:22.651Z,4.92
2022-12-07T06:01:48.007Z,4.9
2022-12-07T06:05:13.364Z,4.88
2022-12-07T06:08:38.734Z,4.82
2022-12-07T06:12:04.098Z,4.75
2022-12-07T06:15:29.471Z,4.74
2022-12-07T06:18:54.855Z,4.79
2022-12-07T06:22:20.231Z,4.83
2022-12-07T06:25:45.579Z,4.83
2022-12-07T06:29:11.011Z,4.9
2022-12-07T06:32:36.334Z,4.96
2022-12-07T06:36:01.701Z,5.06
2022-12-07T06:39:27.062Z,5.1
2022-12-07T06:42:52.447Z,5.1
2022-12-07T06:46:17.804Z,5.08
2022-12-07T06:49:43.378Z,5.15
2022-12-07T06:53:08.816Z,5.19
2022-12-07T06:56:34.205Z,5.21
2022-12-07T06:59:59.646Z,5.21
2022-12-07T07:03:25.005Z,5.15
2022-12-07T07:06:51.973Z,5.13
2022-12-07T07:10:15.620Z,5.23
2022-12-07T07:13:40.861Z,5.34
2022-12-07T07:17:06.140Z,5.37
2022-12-07T07:20:31.358Z,5.4
2022-12-07T07:23:56.615Z,5.37
2022-12-07T07:27:21.891Z,5.36
2022-12-07T07:30:47.227Z,5.36
2022-12-07T07:34:12.362Z,5.34
2022-12-07T07:37:37.635Z,5.36
2022-12-07T07:41:02.844Z,5.43
2022-12-07T07:44:33.328Z,5.42
2022-12-07T07:47:53.337Z,5.4
2022-12-07T07:51:18.579Z,5.41
2022-12-07T07:54:43.846Z,5.46
2022-12-07T07:58:09.074Z,5.49
2022-12-07T08:01:34.416Z,5.54
2022-12-07T08:04:59.664Z,5.58
2022-12-07T08:08:24.933Z,5.63
2022-12-07T08:11:50.120Z,5.59
2022-12-07T08:15:15.341Z,5.56
2022-12-07T08:18:40.595Z,5.55
2022-12-07T08:22:05.823Z,5.53
2022-12-07T08:25:31.082Z,5.62
2022-12-07T08:28:56.387Z,5.65
2022-12-07T08:32:21.628Z,5.68
2022-12-07T08:35:46.875Z,5.69
2022-12-07T08:42:37.377Z,5.65
2022-12-07T08:46:02.722Z,5.7
2022-12-07T08:49:27.905Z,5.73
2022-12-07T08:52:53.208Z,5.81
2022-12-07T08:56:18.437Z,5.91
2022-12-07T08:59:43.745Z,5.9
2022-12-07T09:03:09.107Z,5.85
2022-12-07T09:06:34.496Z,5.86
2022-12-07T09:09:59.783Z,5.89
2022-12-07T09:13:24.953Z,5.94
2022-12-07T09:16:50.271Z,5.98
2022-12-07T09:20:15.734Z,6.01
2022-12-07T09:23:41.567Z,6.02
2022-12-07T09:27:06.841Z,6.05
2022-12-07T09:30:32.121Z,6.08
2022-12-07T09:33:57.499Z,6.07
2022-12-07T09:37:22.772Z,6.09
2022-12-07T09:40:48.001Z,6.11
2022-12-07T09:44:13.305Z,6.11
2022-12-07T09:47:38.717Z,6.1
2022-12-07T09:51:04.022Z,6.22
2022-12-07T09:54:29.421Z,6.3
2022-12-07T09:57:54.676Z,6.39
2022-12-07T10:01:20.020Z,6.44
2022-12-07T10:04:45.269Z,6.51
2022-12-07T10:08:10.512Z,6.6
2022-12-07T10:11:35.753Z,6.68
2022-12-07T10:15:08.899Z,6.78
2022-12-07T10:18:26.277Z,6.86
2022-12-07T10:21:51.567Z,6.97
2022-12-07T10:25:16.827Z,7.02
2022-12-07T10:28:42.575Z,7.12
2022-12-07T10:32:07.402Z,7.29
2022-12-07T10:35:32.682Z,7.44
2022-12-07T10:38:57.944Z,7.46
2022-12-07T10:42:23.179Z,7.47
2022-12-07T10:46:03.179Z,7.5
2022-12-07T10:49:16.331Z,7.57
2022-12-07T10:52:41.590Z,7.55
2022-12-07T10:56:06.819Z,7.51
2022-12-07T10:59:32.068Z,7.51
2022-12-07T11:02:57.342Z,7.55
2022-12-07T11:06:22.578Z,7.53
2022-12-07T11:10:10.610Z,7.49
2022-12-07T11:13:13.060Z,7.61
2022-12-07T11:16:38.382Z,7.71
2022-12-07T11:20:03.890Z,7.9
2022-12-07T11:23:28.847Z,8.16
2022-12-07T11:26:54.109Z,8.34
2022-12-07T11:30:19.374Z,8.48
2022-12-07T11:33:44.611Z,8.59
2022-12-07T11:37:09.881Z,8.58
2022-12-07T11:40:35.116Z,8.59
2022-12-07T11:44:00.365Z,8.65
2022-12-07T11:47:25.602Z,8.56
2022-12-07T11:50:50.905Z,8.41
2022-12-07T11:54:16.221Z,8.33
2022-12-07T11:57:41.445Z,8.34
2022-12-07T12:01:06.692Z,8.28
2022-12-07T12:04:31.963Z,8.27
2022-12-07T12:11:22.499Z,8.41
2022-12-07T12:14:48.427Z,8.34
2022-12-07T12:18:12.989Z,8.25
2022-12-07T12:21:38.251Z,8.08
2022-12-07T12:25:03.804Z,7.92
2022-12-07T12:28:28.823Z,7.68
2022-12-07T12:31:54.126Z,7.55
2022-12-07T12:35:19.349Z,7.52
2022-12-07T12:38:44.547Z,7.52
2022-12-07T12:42:09.817Z,7.56
2022-12-07T12:45:35.142Z,7.58
2022-12-07T12:49:00.343Z,7.56
2022-12-07T12:52:25.657Z,7.41
2022-12-07T12:55:50.942Z,7.27
2022-12-07T12:59:17.189Z,7.23
2022-12-07T13:02:42.537Z,7.28
2022-12-07T13:06:07.946Z,7.39
2022-12-07T13:09:33.200Z,7.37
2022-12-07T13:13:49.128Z,7.21
2022-12-07T13:17:38.278Z,7.07
2022-12-07T13:21:06.388Z,7
2022-12-07T13:24:31.587Z,7.01
2022-12-07T13:28:01.199Z,7.03
2022-12-07T13:31:42.967Z,7.05
2022-12-07T13:35:15.857Z,6.98
2022-12-07T13:38:41.199Z,6.92
2022-12-07T13:42:07.091Z,6.91
2022-12-07T13:45:33.228Z,6.9
2022-12-07T13:48:58.771Z,6.88
2022-12-07T13:52:24.050Z,6.9
2022-12-07T13:55:54.226Z,6.88
2022-12-07T13:59:14.708Z,6.81
2022-12-07T14:02:44.139Z,6.78
2022-12-07T14:06:05.320Z,6.8
2022-12-07T14:09:30.679Z,6.79
2022-12-07T14:12:56.035Z,6.84
2022-12-07T14:16:21.359Z,6.89
2022-12-07T14:19:48.850Z,6.94
2022-12-07T14:23:11.917Z,6.97
2022-12-07T14:26:37.166Z,7.02
2022-12-07T14:30:02.516Z,7.03
2022-12-07T15:04:18.830Z,4.27
2022-12-07T15:07:44.082Z,5.24
2022-12-07T15:11:09.336Z,5.41
2022-12-07T15:14:34.621Z,5.61
2022-12-07T15:17:59.965Z,5.78
2022-12-07T15:21:25.304Z,5.97
2022-12-07T15:24:50.552Z,6.05
2022-12-07T15:28:15.825Z,6.11
2022-12-07T15:31:55.577Z,6.19
2022-12-07T15:35:06.551Z,6.27
2022-12-07T15:38:56.254Z,6.33
2022-12-07T15:41:56.918Z,6.41
2022-12-07T15:45:22.171Z,6.48
2022-12-07T15:48:47.542Z,6.51
2022-12-07T15:52:12.812Z,6.47
2022-12-07T15:55:38.189Z,6.44
2022-12-07T15:59:03.457Z,6.41
2022-12-07T16:02:28.786Z,6.36
2022-12-07T16:05:54.057Z,6.34
2022-12-07T16:09:20.243Z,6.26
2022-12-07T16:12:45.576Z,6.21
2022-12-07T16:16:10.890Z,6.24
2022-12-07T16:19:36.115Z,6.27
2022-12-07T16:23:01.398Z,6.29
2022-12-07T16:26:26.661Z,6.29
2022-12-07T16:29:51.923Z,6.35
2022-12-07T16:33:17.194Z,6.37
2022-12-07T16:37:10.688Z,6.39
2022-12-07T16:40:07.697Z,6.41
2022-12-07T16:43:32.956Z,6.43
2022-12-07T16:46:58.234Z,6.46
2022-12-07T16:50:23.434Z,6.47
2022-12-07T16:53:48.738Z,6.48
2022-12-07T16:57:18.318Z,6.52
2022-12-07T17:00:39.332Z,6.53
2022-12-07T17:04:04.699Z,6.51
2022-12-07T17:07:29.893Z,6.54
2022-12-07T17:11:03.643Z,6.49
2022-12-07T17:14:33.602Z,6.42
2022-12-07T17:18:09.387Z,6.4
2022-12-07T17:21:34.664Z,6.39
2022-12-07T17:25:05.595Z,6.39
2022-12-07T17:28:30.471Z,6.44
2022-12-07T17:31:55.745Z,6.5
2022-12-07T17:35:20.985Z,6.55
2022-12-07T17:38:46.262Z,6.58
2022-12-07T17:42:11.550Z,6.59
2022-12-07T17:45:36.947Z,6.53
2022-12-07T17:49:02.201Z,6.45
2022-12-07T17:52:27.465Z,6.39
2022-12-07T17:59:17.989Z,6.39
2022-12-07T18:02:43.294Z,6.39
2022-12-07T18:06:08.493Z,6.43
2022-12-07T18:09:33.990Z,6.39
2022-12-07T18:12:59.258Z,6.38
2022-12-07T18:16:24.647Z,6.36
2022-12-07T18:19:49.832Z,6.38
2022-12-07T18:23:15.080Z,6.42
2022-12-07T18:26:40.321Z,6.45
2022-12-07T18:30:05.605Z,6.45
2022-12-07T18:33:30.819Z,6.44
2022-12-07T18:36:56.046Z,6.42
2022-12-07T18:40:21.296Z,6.39
2022-12-07T18:43:46.557Z,6.39
2022-12-07T18:47:11.841Z,6.38
2022-12-07T18:50:37.095Z,6.37
2022-12-07T18:54:02.394Z,6.39
2022-12-07T18:57:27.605Z,6.4
2022-12-07T19:00:52.934Z,6.37
2022-12-07T19:04:18.147Z,6.34
2022-12-07T19:07:43.404Z,6.32
2022-12-07T19:11:08.639Z,6.3
2022-12-07T19:14:33.891Z,6.29
2022-12-07T19:17:59.133Z,6.29
2022-12-07T19:21:24.392Z,6.34
2022-12-07T19:24:49.623Z,6.36
2022-12-07T19:28:14.862Z,6.39
2022-12-07T19:31:40.255Z,6.38
2022-12-07T19:35:05.618Z,6.36
2022-12-07T19:38:30.672Z,6.32
2022-12-07T19:41:55.857Z,6.29
2022-12-07T19:45:21.099Z,6.26
2022-12-07T19:48:46.383Z,6.24
2022-12-07T19:52:11.678Z,6.24
2022-12-07T19:55:36.962Z,6.25
2022-12-07T19:59:02.189Z,6.22
2022-12-07T20:02:27.489Z,6.16
2022-12-07T20:05:52.758Z,6.14
2022-12-07T20:09:18.036Z,6.12
2022-12-07T20:12:43.343Z,6.08
2022-12-07T20:16:19.175Z,6.09
2022-12-07T20:19:33.848Z,6.04
2022-12-07T20:22:59.104Z,6.02
2022-12-07T20:26:24.365Z,5.99
2022-12-07T20:29:49.680Z,5.97
2022-12-07T20:33:14.939Z,5.99
2022-12-07T20:36:40.200Z,6
2022-12-07T20:40:05.447Z,6.01
2022-12-07T20:43:30.749Z,5.99
2022-12-07T20:46:56.040Z,5.96
2022-12-07T20:50:21.288Z,5.94
2022-12-07T20:53:46.583Z,5.91
2022-12-07T20:57:11.851Z,5.85
2022-12-07T21:00:37.172Z,5.79
2022-12-07T21:04:02.446Z,5.77
2022-12-07T21:07:27.670Z,5.73
2022-12-07T21:10:52.938Z,5.73
2022-12-07T21:14:18.199Z,5.74
2022-12-07T21:17:43.457Z,5.71
2022-12-07T21:21:08.721Z,5.66
2022-12-07T21:24:33.978Z,5.65
2022-12-07T21:27:59.279Z,5.68
2022-12-07T21:31:24.707Z,5.67
2022-12-07T21:34:49.813Z,5.65
2022-12-07T21:38:15.153Z,5.66
2022-12-07T21:41:40.394Z,5.72
2022-12-07T21:45:05.852Z,5.78
2022-12-07T21:48:30.935Z,5.85
2022-12-07T21:51:56.186Z,5.91
2022-12-07T21:55:21.514Z,5.9
2022-12-07T21:58:46.777Z,5.82
2022-12-07T22:02:12.062Z,5.78
2022-12-07T22:05:37.314Z,5.72
2022-12-07T22:09:02.614Z,5.68
2022-12-07T22:12:27.910Z,5.67
2022-12-07T22:15:53.187Z,5.67
2022-12-07T22:19:18.392Z,5.61
2022-12-07T22:22:43.628Z,5.59
2022-12-07T22:26:08.928Z,5.59
2022-12-07T22:29:34.219Z,5.6
2022-12-07T22:32:59.434Z,5.59
2022-12-07T22:36:24.701Z,5.61
2022-12-07T22:39:50.016Z,5.58
2022-12-07T22:43:15.289Z,5.57
2022-12-07T22:46:40.652Z,5.61
2022-12-07T22:50:05.809Z,5.66
2022-12-07T22:53:31.121Z,5.64
2022-12-07T22:56:56.383Z,5.63
2022-12-07T23:00:21.652Z,5.65
2022-12-07T23:03:47.005Z,5.64
2022-12-07T23:07:12.227Z,5.62
2022-12-07T23:10:37.511Z,5.6
2022-12-07T23:14:02.782Z,5.6
2022-12-07T23:17:28.043Z,5.62
2022-12-07T23:20:53.302Z,5.67
2022-12-07T23:24:18.567Z,5.69
2022-12-07T23:27:43.829Z,5.7
2022-12-07T23:31:09.130Z,5.67
2022-12-07T23:34:34.369Z,5.67
2022-12-07T23:37:59.683Z,5.7
2022-12-07T23:41:24.921Z,5.7
2022-12-07T23:44:50.206Z,5.71
2022-12-07T23:48:15.478Z,5.69
2022-12-07T23:51:40.784Z,5.66
2022-12-07T23:55:06.299Z,5.71
2022-12-07T23:58:31.312Z,5.75
